Time;durP1;ratioP1;P1;durP2;ratioP2;P2;SDS_P1;SDS_P2;PMS_P1;PMS_P2;Temp;Humidity;BMP_temperature;BMP_pressure;BME280_temperature;BME280_humidity;BME280_pressure;Samples;Min_cycle;Max_cycle;Signal;HPM_P1;HPM_P2
2022/05/03 00:00:02;;;;;;;25.23;23.70;;;13.90;51.70;;;;;;5011438;28;20416;-85
2022/05/03 00:02:55;;;;;;;25.07;23.37;;;13.90;51.30;;;;;;5011287;28;20824;-85
2022/05/03 00:05:43;;;;;;;25.00;23.50;;;13.90;51.50;;;;;;5011352;28;20421;-85
2022/05/03 00:08:28;;;;;;;23.93;22.53;;;13.90;51.50;;;;;;5012283;28;20443;-85
2022/05/03 00:11:07;;;;;;;24.50;23.00;;;13.90;51.40;;;;;;5010617;28;20468;-85
2022/05/03 00:13:51;;;;;;;24.63;23.17;;;13.90;51.60;;;;;;5011654;28;20435;-85
2022/05/03 00:16:18;;;;;;;24.87;23.37;;;13.90;51.80;;;;;;5011113;28;20408;-85
2022/05/03 00:18:44;;;;;;;22.60;21.40;;;13.90;51.80;;;;;;5010930;28;20417;-85
2022/05/03 00:21:13;;;;;;;23.90;22.50;;;13.90;51.70;;;;;;5010708;28;20788;-85
2022/05/03 00:23:39;;;;;;;24.07;22.67;;;13.90;51.90;;;;;;5012151;28;20185;-85
2022/05/03 00:26:06;;;;;;;24.00;22.50;;;13.90;51.80;;;;;;5013496;28;20419;-85
2022/05/03 00:28:32;;;;;;;23.80;22.40;;;13.90;51.70;;;;;;5012239;28;20180;-82
2022/05/03 00:30:58;;;;;;;24.03;22.60;;;13.90;52.00;;;;;;5012126;28;20467;-82
2022/05/03 00:33:24;;;;;;;24.43;22.97;;;13.80;52.20;;;;;;5012484;28;20404;-82
2022/05/03 00:35:50;;;;;;;23.30;21.80;;;13.70;52.20;;;;;;5012076;28;20788;-83
2022/05/03 00:38:16;;;;;;;23.20;21.80;;;13.80;52.60;;;;;;5012620;28;20176;-82
2022/05/03 00:40:52;;;;;;;24.40;22.70;;;13.80;51.80;;;;;;5010683;28;20416;-82
2022/05/03 00:43:40;;;;;;;27.10;25.70;;;13.80;51.70;;;;;;5010253;28;20530;-81
2022/05/03 00:46:13;;;;;;;24.00;22.40;;;13.70;52.40;;;;;;5024838;28;20851;-81
2022/05/03 00:49:00;;;;;;;24.60;22.83;;;13.70;52.80;;;;;;5027153;28;20424;-81
2022/05/03 00:51:37;;;;;;;24.00;22.00;;;13.70;53.00;;;;;;5010234;28;20867;-81
2022/05/03 00:54:29;;;;;;;23.60;22.10;;;13.60;53.30;;;;;;5012039;28;20405;-81
2022/05/03 00:57:27;;;;;;;22.90;21.70;;;13.60;53.40;;;;;;5010688;28;20422;-81
2022/05/03 01:00:12;;;;;;;27.83;26.33;;;13.60;53.40;;;;;;4967311;28;20423;-81
2022/05/03 01:03:06;;;;;;;24.00;22.53;;;13.50;53.30;;;;;;5010346;28;20420;-80
2022/05/03 01:05:51;;;;;;;22.43;21.17;;;13.50;52.90;;;;;;5010013;28;20416;-81
2022/05/03 01:08:51;;;;;;;21.53;20.30;;;13.50;52.80;;;;;;5009372;28;20499;-81
2022/05/03 01:11:41;;;;;;;22.63;21.33;;;13.30;53.20;;;;;;5005860;28;21009;-81
2022/05/03 01:14:34;;;;;;;24.03;22.63;;;13.30;53.70;;;;;;5009674;28;20782;-81
2022/05/03 01:17:07;;;;;;;23.53;22.03;;;13.20;54.20;;;;;;5010503;28;20412;-81
2022/05/03 01:19:48;;;;;;;24.53;22.83;;;13.00;54.80;;;;;;5009568;28;20412;-81
2022/05/03 01:22:28;;;;;;;23.27;21.77;;;13.00;55.30;;;;;;5009057;28;20424;-81
2022/05/03 01:25:26;;;;;;;23.33;22.00;;;13.00;56.20;;;;;;5010226;28;20458;-81
2022/05/03 01:28:26;;;;;;;22.47;21.07;;;13.20;54.80;;;;;;5009782;28;20928;-81
2022/05/03 01:30:56;;;;;;;24.03;22.53;;;13.20;54.20;;;;;;5008686;28;20460;-81
2022/05/03 01:33:34;;;;;;;24.30;22.57;;;13.30;54.30;;;;;;5009866;28;20416;-81
2022/05/03 01:36:03;;;;;;;23.30;21.73;;;13.30;54.30;;;;;;5012433;28;20423;-81
2022/05/03 01:38:47;;;;;;;22.17;20.67;;;13.30;54.10;;;;;;5013038;28;20422;-81
2022/05/03 01:41:19;;;;;;;23.47;21.80;;;13.10;54.10;;;;;;5012751;28;20436;-81
2022/05/03 01:43:50;;;;;;;23.07;21.60;;;13.10;54.70;;;;;;5012965;28;20415;-81
2022/05/03 01:46:22;;;;;;;21.87;20.50;;;13.00;55.60;;;;;;5012502;28;21107;-81
2022/05/03 01:52:00;;;;;;;21.10;19.87;;;13.00;55.40;;;;;;5013463;28;20927;-81
2022/05/03 01:54:37;;;;;;;23.10;21.70;;;12.80;55.80;;;;;;5012060;28;20462;-81
2022/05/03 01:57:24;;;;;;;23.60;21.63;;;12.70;57.40;;;;;;5012381;28;20448;-81
2022/05/03 02:00:10;;;;;;;22.00;20.50;;;12.70;58.40;;;;;;5012113;28;20416;-81
2022/05/03 02:02:54;;;;;;;26.83;25.10;;;12.70;57.10;;;;;;5012241;28;20428;-81
2022/05/03 02:05:39;;;;;;;21.17;19.93;;;12.80;56.30;;;;;;5012032;28;20412;-81
2022/05/03 02:08:08;;;;;;;22.67;21.33;;;12.80;56.10;;;;;;5012124;28;20408;-81
2022/05/03 02:10:58;;;;;;;23.20;21.57;;;12.80;56.30;;;;;;5011632;28;20467;-81
2022/05/03 02:16:30;;;;;;;24.00;22.30;;;12.50;56.80;;;;;;5012721;28;20531;-81
2022/05/03 02:19:18;;;;;;;27.37;25.53;;;12.60;57.40;;;;;;5010047;28;20424;-81
2022/05/03 02:22:32;;;;;;;22.67;21.27;;;12.70;56.70;;;;;;5011013;28;20482;-81
2022/05/03 02:25:20;;;;;;;21.27;19.90;;;12.70;56.50;;;;;;4952564;28;20424;-81
2022/05/03 02:27:59;;;;;;;22.60;21.10;;;12.50;57.20;;;;;;5011554;28;20467;-81
2022/05/03 02:30:27;;;;;;;22.27;20.93;;;12.30;58.10;;;;;;5011241;28;20468;-79
2022/05/03 02:33:01;;;;;;;23.73;21.80;;;12.20;59.00;;;;;;5027368;28;20416;-81
2022/05/03 02:35:33;;;;;;;22.93;21.43;;;12.30;58.70;;;;;;5011202;28;20932;-81
2022/05/03 02:38:06;;;;;;;24.90;23.10;;;12.20;58.70;;;;;;5011046;28;20435;-81
2022/05/03 02:40:33;;;;;;;23.63;21.73;;;12.10;59.60;;;;;;5011242;28;20515;-82
2022/05/03 02:42:59;;;;;;;27.80;26.30;;;12.20;60.00;;;;;;5010982;28;20508;-81
2022/05/03 02:45:26;;;;;;;25.00;23.27;;;12.20;59.20;;;;;;5012106;28;20809;-81
2022/05/03 02:48:06;;;;;;;24.00;22.60;;;12.20;59.10;;;;;;5010380;28;20428;-81
2022/05/03 02:50:50;;;;;;;25.77;24.07;;;12.20;58.80;;;;;;5010951;28;20463;-81
2022/05/03 02:53:37;;;;;;;24.33;22.37;;;12.00;59.80;;;;;;5011119;28;20447;-81
2022/05/03 02:56:30;;;;;;;23.97;22.27;;;12.10;60.10;;;;;;5010784;28;20412;-81
2022/05/03 02:59:05;;;;;;;23.87;22.27;;;12.10;59.70;;;;;;5011088;28;20875;-81
2022/05/03 03:01:48;;;;;;;25.13;23.53;;;12.10;59.70;;;;;;5010859;28;20427;-81
2022/05/03 03:04:36;;;;;;;25.20;23.70;;;12.20;58.90;;;;;;5010694;28;20804;-82
2022/05/03 03:07:04;;;;;;;25.87;24.17;;;12.20;58.80;;;;;;5010669;28;20852;-81
2022/05/03 03:09:44;;;;;;;25.57;23.87;;;12.40;57.90;;;;;;5010493;28;20499;-81
2022/05/03 03:12:12;;;;;;;24.90;23.40;;;12.40;57.60;;;;;;5010941;28;20427;-81
2022/05/03 03:14:47;;;;;;;24.30;22.63;;;12.40;57.90;;;;;;5010518;28;20432;-81
2022/05/03 03:17:20;;;;;;;22.77;21.13;;;12.40;57.70;;;;;;5010734;28;20416;-81
2022/05/03 03:19:58;;;;;;;23.60;22.10;;;12.40;57.40;;;;;;5011164;28;20424;-81
2022/05/03 03:22:29;;;;;;;23.43;21.83;;;12.40;57.70;;;;;;5010810;28;20779;-81
2022/05/03 03:24:57;;;;;;;24.50;22.83;;;12.30;57.90;;;;;;5011295;28;20506;-81
2022/05/03 03:27:24;;;;;;;23.10;21.40;;;12.30;58.10;;;;;;5011144;28;20526;-81
2022/05/03 03:29:55;;;;;;;21.77;20.23;;;12.20;58.10;;;;;;5011113;28;20475;-81
2022/05/03 03:32:25;;;;;;;24.73;22.83;;;12.00;59.40;;;;;;5011069;28;20503;-81
2022/05/03 03:34:53;;;;;;;23.47;21.90;;;11.80;60.80;;;;;;5011322;28;20431;-81
2022/05/03 03:37:23;;;;;;;24.73;23.03;;;11.80;61.00;;;;;;5011029;28;20471;-81
2022/05/03 03:39:49;;;;;;;24.00;22.50;;;11.70;61.10;;;;;;5011555;28;20798;-81
2022/05/03 03:42:14;;;;;;;24.47;22.87;;;11.70;61.10;;;;;;5011444;28;20423;-81
2022/05/03 03:44:40;;;;;;;25.13;23.60;;;11.70;60.40;;;;;;5011841;28;20192;-81
2022/05/03 03:47:07;;;;;;;26.83;24.90;;;11.40;59.30;;;;;;5012100;28;20638;-80
2022/05/03 03:49:34;;;;;;;25.90;24.00;;;11.30;61.10;;;;;;5014586;28;20448;-84
2022/05/03 03:52:00;;;;;;;25.37;23.67;;;11.50;61.20;;;;;;5012608;28;20420;-82
2022/05/03 03:54:26;;;;;;;23.93;22.43;;;11.60;60.10;;;;;;5011326;28;20844;-85
2022/05/03 03:56:56;;;;;;;24.67;23.07;;;11.70;59.70;;;;;;5011770;28;20451;-84
2022/05/03 03:59:22;;;;;;;24.20;22.50;;;11.70;60.00;;;;;;5012376;28;20623;-83
2022/05/03 04:01:49;;;;;;;26.67;24.70;;;11.60;60.60;;;;;;5013304;28;20424;-83
2022/05/03 04:04:25;;;;;;;26.40;24.60;;;11.60;60.70;;;;;;5002475;28;20547;-82
2022/05/03 04:06:51;;;;;;;25.20;23.60;;;11.60;60.80;;;;;;5009048;28;20420;-85
2022/05/03 04:09:16;;;;;;;25.27;23.67;;;11.60;61.10;;;;;;4992572;28;20796;-86
2022/05/03 04:11:47;;;;;;;26.70;24.57;;;11.50;61.50;;;;;;4992787;28;20633;-83
2022/05/03 04:14:13;;;;;;;27.23;25.33;;;11.50;61.00;;;;;;4992525;28;20178;-84
2022/05/03 04:16:39;;;;;;;26.33;24.43;;;11.50;61.40;;;;;;4992510;28;20447;-84
2022/05/03 04:19:05;;;;;;;26.80;25.03;;;11.50;61.20;;;;;;4992069;28;20445;-85
2022/05/03 04:21:31;;;;;;;26.07;24.40;;;11.50;61.90;;;;;;4993759;28;20424;-84
2022/05/03 04:23:57;;;;;;;27.03;24.93;;;11.50;61.50;;;;;;4993278;28;20413;-85
2022/05/03 04:26:22;;;;;;;23.43;21.93;;;11.60;60.80;;;;;;4991851;28;20186;-85
2022/05/03 04:28:48;;;;;;;25.27;23.50;;;11.70;60.60;;;;;;4992395;28;20528;-85
2022/05/03 04:31:14;;;;;;;25.67;23.97;;;11.70;60.70;;;;;;4976012;28;20566;-84
2022/05/03 04:33:40;;;;;;;26.17;24.23;;;11.70;60.50;;;;;;4976209;28;20185;-84
2022/05/03 04:36:05;;;;;;;26.63;24.63;;;11.90;59.30;;;;;;4975950;28;20268;-85
2022/05/03 04:38:31;;;;;;;25.17;23.37;;;12.10;58.50;;;;;;4975992;28;20265;-86
2022/05/03 04:41:01;;;;;;;25.20;23.30;;;12.00;58.70;;;;;;4976366;28;20654;-83
2022/05/03 04:43:28;;;;;;;25.20;22.87;;;11.80;60.30;;;;;;4992380;28;20202;-85
2022/05/03 04:45:53;;;;;;;25.80;23.80;;;11.70;61.20;;;;;;4992252;28;20515;-83
2022/05/03 04:48:22;;;;;;;26.40;24.50;;;11.70;61.60;;;;;;4975821;28;20573;-83
2022/05/03 04:50:48;;;;;;;24.53;22.83;;;11.90;60.40;;;;;;4976000;28;20210;-84
2022/05/03 04:53:16;;;;;;;25.23;23.50;;;11.90;60.30;;;;;;4976104;28;20865;-86
2022/05/03 04:55:42;;;;;;;25.83;24.03;;;11.70;61.50;;;;;;4992052;28;20190;-85
2022/05/03 04:58:08;;;;;;;23.07;21.50;;;11.60;62.50;;;;;;4992385;28;20420;-84
2022/05/03 05:00:34;;;;;;;26.67;24.80;;;11.60;63.20;;;;;;4975503;28;20421;-86
2022/05/03 05:02:59;;;;;;;25.57;23.67;;;11.50;63.60;;;;;;4975797;28;20654;-84
2022/05/03 05:05:25;;;;;;;24.70;22.90;;;11.60;63.90;;;;;;4975793;28;20980;-82
2022/05/03 05:07:50;;;;;;;27.10;25.10;;;11.70;62.60;;;;;;4975696;28;20182;-83
2022/05/03 05:10:27;;;;;;;27.23;25.33;;;11.60;62.50;;;;;;4979018;28;20209;-84
2022/05/03 05:12:56;;;;;;;27.83;25.67;;;11.80;62.70;;;;;;4995764;28;20178;-84
2022/05/03 05:15:25;;;;;;;28.20;25.90;;;11.70;60.70;;;;;;4996077;28;20422;-85
2022/05/03 05:17:52;;;;;;;29.30;26.90;;;11.60;59.70;;;;;;4996077;28;20421;-83
2022/05/03 05:20:18;;;;;;;27.20;25.30;;;11.70;60.50;;;;;;4996058;28;20420;-82
2022/05/03 05:22:45;;;;;;;26.93;25.00;;;11.80;59.70;;;;;;4997110;28;20435;-82
2022/05/03 05:25:11;;;;;;;26.17;24.47;;;11.70;60.20;;;;;;4995655;28;20428;-84
2022/05/03 05:27:36;;;;;;;26.13;24.33;;;11.80;60.70;;;;;;4979841;28;20429;-83
2022/05/03 05:30:09;;;;;;;28.33;25.93;;;11.90;60.40;;;;;;4996804;23;20210;-85
2022/05/03 05:32:42;;;;;;;26.87;24.77;;;11.90;60.10;;;;;;4997102;28;20557;-82
2022/05/03 05:35:13;;;;;;;29.03;26.70;;;11.90;60.30;;;;;;4995041;28;20445;-82
2022/05/03 05:37:38;;;;;;;28.17;25.77;;;12.00;60.80;;;;;;4994957;28;20441;-81
2022/05/03 05:40:05;;;;;;;27.80;26.00;;;11.90;60.20;;;;;;4995332;28;20421;-82
2022/05/03 05:42:30;;;;;;;28.77;26.77;;;11.90;61.40;;;;;;4994902;28;20194;-81
2022/05/03 05:44:56;;;;;;;29.17;27.03;;;12.00;60.70;;;;;;4997492;28;20539;-82
2022/05/03 05:47:22;;;;;;;30.50;27.67;;;12.10;60.80;;;;;;4997843;28;20205;-81
2022/05/03 05:49:48;;;;;;;29.63;27.63;;;12.10;60.40;;;;;;4997615;28;20668;-81
2022/05/03 05:54:58;;;;;;;29.10;27.00;;;12.20;60.10;;;;;;5016351;28;20475;-82
2022/05/03 05:57:24;;;;;;;30.70;28.37;;;12.40;60.00;;;;;;4995538;28;20432;-80
2022/05/03 05:59:49;;;;;;;28.77;26.67;;;12.40;59.30;;;;;;4996874;28;20435;-81
2022/05/03 06:02:15;;;;;;;29.00;26.83;;;12.50;60.20;;;;;;4997713;28;20173;-81
2022/05/03 06:04:41;;;;;;;28.40;26.20;;;12.50;60.10;;;;;;4997589;28;20208;-81
2022/05/03 06:07:07;;;;;;;29.33;27.33;;;12.50;59.60;;;;;;4995193;28;20247;-81
2022/05/03 06:09:34;;;;;;;30.10;27.70;;;12.60;59.90;;;;;;4994260;28;20534;-81
2022/05/03 06:12:00;;;;;;;31.90;29.33;;;12.70;58.40;;;;;;4997568;28;20441;-81
2022/05/03 06:14:26;;;;;;;30.97;28.43;;;12.70;57.40;;;;;;4997641;28;20420;-81
2022/05/03 06:16:55;;;;;;;29.17;27.00;;;12.80;57.80;;;;;;4997459;28;20768;-81
2022/05/03 06:19:21;;;;;;;28.93;26.30;;;12.80;58.10;;;;;;5014311;28;20169;-81
2022/05/03 06:21:47;;;;;;;30.53;28.27;;;12.90;58.70;;;;;;4995819;28;20408;-81
2022/05/03 06:24:14;;;;;;;32.30;30.10;;;12.90;56.80;;;;;;4996909;28;20417;-82
2022/05/03 06:26:39;;;;;;;30.90;28.37;;;13.00;57.50;;;;;;4996520;28;20490;-81
2022/05/03 06:29:08;;;;;;;32.53;29.60;;;13.10;58.20;;;;;;4985078;28;20421;-81
2022/05/03 06:31:37;;;;;;;30.17;27.87;;;13.10;58.10;;;;;;4985078;28;20551;-81
2022/05/03 06:34:04;;;;;;;31.13;28.70;;;13.10;59.80;;;;;;4996926;28;20920;-81
2022/05/03 06:36:29;;;;;;;32.13;29.63;;;13.20;59.00;;;;;;4996766;28;20617;-81
2022/05/03 06:38:56;;;;;;;33.73;31.23;;;13.30;55.30;;;;;;4997318;28;20981;-81
2022/05/03 06:41:21;;;;;;;31.73;29.37;;;13.30;56.50;;;;;;4996880;28;21007;-81
2022/05/03 06:43:47;;;;;;;33.80;31.23;;;13.30;56.90;;;;;;4996880;28;20495;-81
2022/05/03 06:46:13;;;;;;;32.10;29.77;;;13.40;57.70;;;;;;5013987;28;20169;-81
2022/05/03 06:48:38;;;;;;;30.37;27.97;;;13.40;56.10;;;;;;4995576;28;20182;-81
2022/05/03 06:51:07;;;;;;;32.30;29.90;;;13.50;55.60;;;;;;4984915;28;20681;-81
2022/05/03 06:53:33;;;;;;;30.53;28.43;;;13.60;57.10;;;;;;4987549;28;20180;-81
2022/05/03 06:55:59;;;;;;;31.90;29.70;;;13.70;57.60;;;;;;4986423;28;20421;-81
2022/05/03 06:58:25;;;;;;;31.43;29.33;;;13.80;56.90;;;;;;4988761;28;20550;-81
2022/05/03 07:00:51;;;;;;;30.90;28.77;;;13.90;57.30;;;;;;5014382;28;20668;-81
2022/05/03 07:03:17;;;;;;;31.30;29.10;;;13.90;53.70;;;;;;4996864;28;20932;-81
2022/05/03 07:05:43;;;;;;;30.73;28.63;;;14.00;54.90;;;;;;4996766;28;20474;-81
2022/05/03 07:08:10;;;;;;;33.33;31.15;;;14.10;55.00;;;;;;4996173;28;20423;-81
2022/05/03 07:10:36;;;;;;;32.93;30.93;;;14.20;55.10;;;;;;4996833;28;20255;-80
2022/05/03 07:13:03;;;;;;;31.70;29.80;;;14.20;51.90;;;;;;4996945;28;20940;-81
2022/05/03 07:15:30;;;;;;;31.43;29.23;;;14.20;52.60;;;;;;4996840;28;20615;-81
2022/05/03 07:23:26;;;;;;;28.80;27.20;;;14.40;52.50;;;;;;5014574;28;20957;-81
2022/05/03 07:25:53;;;;;;;34.20;31.90;;;14.50;53.20;;;;;;4996413;28;20420;-81
2022/05/03 07:28:19;;;;;;;30.40;28.50;;;14.60;52.10;;;;;;4996208;28;20421;-81
2022/05/03 07:30:45;;;;;;;30.97;29.00;;;14.80;50.90;;;;;;4996344;28;20522;-80
2022/05/03 07:33:11;;;;;;;33.00;30.10;;;14.80;50.00;;;;;;4996199;28;20174;-81
2022/05/03 07:35:36;;;;;;;30.87;28.77;;;15.00;49.70;;;;;;4996253;28;20223;-81
2022/05/03 07:38:02;;;;;;;30.13;28.23;;;15.10;49.70;;;;;;4996174;28;20279;-82
2022/05/03 07:40:28;;;;;;;31.37;29.03;;;15.20;49.50;;;;;;4996328;28;20296;-82
2022/05/03 07:42:54;;;;;;;31.60;29.60;;;15.20;49.00;;;;;;4996439;28;20173;-82
2022/05/03 07:45:20;;;;;;;32.17;29.87;;;15.20;48.10;;;;;;4995869;28;20260;-82
2022/05/03 07:47:46;;;;;;;31.00;29.10;;;15.30;48.80;;;;;;4996104;28;20459;-81
2022/05/03 07:50:12;;;;;;;30.27;28.37;;;15.30;49.90;;;;;;4995696;28;20477;-81
2022/05/03 07:52:38;;;;;;;31.70;29.60;;;15.30;48.80;;;;;;4995708;28;20533;-81
2022/05/03 07:55:06;;;;;;;31.50;29.70;;;15.40;48.00;;;;;;4995530;28;20423;-81
2022/05/03 07:57:32;;;;;;;30.90;29.00;;;15.50;47.80;;;;;;4995839;28;20903;-81
2022/05/03 07:59:58;;;;;;;31.23;29.17;;;15.50;46.60;;;;;;4995691;28;20428;-81
2022/05/03 08:02:25;;;;;;;31.20;28.00;;;15.50;46.40;;;;;;4995932;28;20796;-81
2022/05/03 08:04:52;;;;;;;29.90;28.03;;;15.50;46.00;;;;;;4995237;28;20227;-81
2022/05/03 08:07:18;;;;;;;27.83;26.03;;;15.50;46.40;;;;;;4995380;28;20416;-81
2022/05/03 08:09:45;;;;;;;29.50;27.90;;;15.60;46.30;;;;;;4995588;28;20463;-81
2022/05/03 08:12:11;;;;;;;30.33;28.53;;;15.50;45.00;;;;;;4989345;28;20420;-81
2022/05/03 08:14:37;;;;;;;28.87;26.73;;;15.50;44.00;;;;;;4995662;28;20535;-81
2022/05/03 08:17:04;;;;;;;28.97;27.47;;;15.60;45.80;;;;;;4995680;28;20420;-82
2022/05/03 08:19:30;;;;;;;29.33;27.30;;;15.60;45.40;;;;;;4995623;28;20412;-81
2022/05/03 08:21:56;;;;;;;32.37;30.37;;;15.60;45.70;;;;;;4995461;28;20420;-81
2022/05/03 08:24:26;;;;;;;29.87;28.17;;;15.60;44.70;;;;;;4995396;28;20794;-81
2022/05/03 08:26:52;;;;;;;27.80;26.50;;;15.60;46.00;;;;;;5013212;28;20941;-81
2022/05/03 08:29:18;;;;;;;27.90;26.50;;;15.60;43.40;;;;;;4995338;28;20787;-80
2022/05/03 08:31:43;;;;;;;26.10;24.80;;;15.60;44.10;;;;;;5012975;28;20460;-81
2022/05/03 08:34:10;;;;;;;28.37;26.87;;;15.70;42.00;;;;;;4995252;28;20256;-79
2022/05/03 08:36:36;;;;;;;26.90;25.40;;;15.70;42.50;;;;;;4994930;28;20584;-80
2022/05/03 08:42:01;;;;;;;26.83;25.47;;;15.80;42.00;;;;;;5013195;28;20478;-79
2022/05/03 08:44:31;;;;;;;28.90;27.50;;;15.90;44.00;;;;;;4994385;28;20515;-79
2022/05/03 08:46:58;;;;;;;28.40;27.00;;;16.00;43.90;;;;;;4975806;28;20449;-80
2022/05/03 08:49:25;;;;;;;29.03;27.53;;;16.10;42.10;;;;;;4975571;28;20475;-81
2022/05/03 08:51:52;;;;;;;30.03;28.30;;;16.10;42.50;;;;;;4981124;28;20522;-81
2022/05/03 08:54:20;;;;;;;28.40;26.80;;;16.10;42.00;;;;;;4994681;28;20416;-79
2022/05/03 08:56:47;;;;;;;29.90;28.30;;;16.20;41.80;;;;;;4994834;28;20420;-81
2022/05/03 08:59:12;;;;;;;28.73;27.00;;;16.40;41.90;;;;;;4994186;28;20420;-81
2022/05/03 09:01:39;;;;;;;28.57;26.97;;;16.50;39.90;;;;;;4994504;28;20424;-80
2022/05/03 09:04:06;;;;;;;28.80;27.17;;;16.60;40.60;;;;;;5011921;28;20174;-80
2022/05/03 09:06:41;;;;;;;28.03;26.63;;;16.80;39.50;;;;;;4994301;28;20427;-80
2022/05/03 09:09:11;;;;;;;27.07;25.70;;;16.90;40.00;;;;;;4994303;28;20434;-80
2022/05/03 09:11:48;;;;;;;26.63;25.43;;;16.90;39.80;;;;;;4994095;28;20825;-79
2022/05/03 09:14:34;;;;;;;27.60;26.10;;;17.00;38.30;;;;;;4994738;28;20458;-80
2022/05/03 09:17:02;;;;;;;28.07;26.67;;;17.10;39.20;;;;;;4994431;28;20428;-80
2022/05/03 09:19:28;;;;;;;27.80;26.50;;;17.10;38.00;;;;;;4994294;28;20416;-80
2022/05/03 09:25:06;;;;;;;26.97;25.57;;;17.30;37.30;;;;;;4999264;28;20653;-81
2022/05/03 09:27:32;;;;;;;26.07;24.87;;;17.40;38.60;;;;;;4975066;28;20421;-81
2022/05/03 09:30:01;;;;;;;26.43;24.80;;;17.50;37.90;;;;;;4974782;28;20492;-80
2022/05/03 09:32:41;;;;;;;28.33;27.00;;;17.60;35.80;;;;;;4977698;28;20416;-80
2022/05/03 09:35:33;;;;;;;27.33;26.00;;;17.60;36.00;;;;;;4994306;28;20412;-80
2022/05/03 09:38:02;;;;;;;25.80;24.70;;;17.60;35.10;;;;;;4991186;28;20423;-82
2022/05/03 09:40:35;;;;;;;24.93;23.80;;;17.80;34.80;;;;;;4993485;28;20785;-81
2022/05/03 09:43:05;;;;;;;24.80;23.60;;;17.90;32.70;;;;;;4989523;28;21096;-81
2022/05/03 09:45:31;;;;;;;24.80;23.70;;;17.80;31.30;;;;;;4994035;28;20420;-81
2022/05/03 09:47:59;;;;;;;25.73;24.50;;;17.90;33.10;;;;;;4994307;28;20424;-81
2022/05/03 09:50:33;;;;;;;24.10;22.90;;;17.90;34.80;;;;;;4994097;28;20205;-81
2022/05/03 09:53:09;;;;;;;22.33;21.40;;;17.90;31.70;;;;;;4994020;28;20419;-81
2022/05/03 09:55:37;;;;;;;24.90;23.80;;;17.90;31.90;;;;;;4994753;28;20419;-80
2022/05/03 09:58:07;;;;;;;24.63;23.40;;;17.90;31.20;;;;;;4997514;28;20424;-80
2022/05/03 10:00:34;;;;;;;24.23;22.83;;;18.00;32.40;;;;;;4997429;28;20428;-80
2022/05/03 10:03:02;;;;;;;24.60;23.23;;;18.20;30.00;;;;;;4997478;28;20443;-80
2022/05/03 10:05:28;;;;;;;24.20;23.00;;;18.20;30.90;;;;;;4997161;28;20420;-80
2022/05/03 10:07:55;;;;;;;23.17;22.17;;;18.20;30.70;;;;;;4997639;28;20518;-80
2022/05/03 10:10:22;;;;;;;24.40;23.20;;;18.20;31.40;;;;;;4997504;28;20967;-82
2022/05/03 10:12:53;;;;;;;23.50;22.50;;;18.30;31.80;;;;;;4997321;28;20788;-80
2022/05/03 10:21:23;;;;;;;24.03;22.73;;;18.30;30.80;;;;;;5004462;28;20419;-80
2022/05/03 10:24:08;;;;;;;25.10;23.60;;;18.40;30.00;;;;;;4997088;28;20499;-83
2022/05/03 10:27:02;;;;;;;24.00;23.00;;;18.40;31.20;;;;;;4997506;28;20435;-80
2022/05/03 10:29:33;;;;;;;24.33;23.10;;;18.50;31.90;;;;;;4996977;28;20672;-81
2022/05/03 10:32:03;;;;;;;24.30;23.20;;;18.60;31.20;;;;;;4996921;28;20444;-80
2022/05/03 10:34:41;;;;;;;25.10;23.90;;;18.60;30.20;;;;;;4996701;28;20447;-81
2022/05/03 10:37:08;;;;;;;25.10;24.00;;;18.80;31.30;;;;;;4996736;28;20777;-81
2022/05/03 10:39:34;;;;;;;24.65;23.45;;;18.80;30.90;;;;;;4996227;28;20779;-80
2022/05/03 10:42:02;;;;;;;25.43;24.33;;;18.90;31.40;;;;;;4997040;28;20177;-80
2022/05/03 10:44:38;;;;;;;23.90;22.90;;;19.10;30.00;;;;;;4996733;28;20415;-80
2022/05/03 10:47:04;;;;;;;24.77;23.70;;;19.20;29.10;;;;;;4996928;28;20431;-80
2022/05/03 10:49:30;;;;;;;24.63;23.53;;;19.20;28.00;;;;;;4996574;28;20431;-80
2022/05/03 10:51:56;;;;;;;23.50;22.50;;;19.20;28.00;;;;;;4996612;28;20475;-80
2022/05/03 10:54:21;;;;;;;24.47;23.13;;;19.30;29.20;;;;;;4996305;28;20409;-79
2022/05/03 10:57:01;;;;;;;23.10;22.10;;;19.30;28.10;;;;;;4995892;28;20256;-80
2022/05/03 10:59:46;;;;;;;23.43;22.43;;;19.30;28.40;;;;;;4990161;28;20173;-79
2022/05/03 11:02:12;;;;;;;24.10;22.97;;;19.10;27.90;;;;;;4997693;28;20508;-79
2022/05/03 11:05:12;;;;;;;22.70;21.53;;;19.10;28.00;;;;;;4996144;28;20511;-79
2022/05/03 11:07:38;;;;;;;22.83;21.83;;;19.20;28.00;;;;;;4996154;28;20188;-79
2022/05/03 11:10:42;;;;;;;23.57;22.47;;;19.20;28.20;;;;;;4996237;28;20452;-79
2022/05/03 11:13:55;;;;;;;22.77;21.77;;;19.20;28.50;;;;;;4996262;28;20200;-79
2022/05/03 11:16:26;;;;;;;23.10;22.10;;;19.20;28.50;;;;;;4996488;28;20424;-79
2022/05/03 11:18:54;;;;;;;23.67;22.37;;;19.30;27.80;;;;;;4996166;28;21049;-79
2022/05/03 11:21:20;;;;;;;22.70;21.80;;;19.20;28.00;;;;;;4995974;28;20428;-80
2022/05/03 11:23:50;;;;;;;22.13;21.23;;;19.20;28.40;;;;;;4996366;28;20416;-79
2022/05/03 11:26:22;;;;;;;21.93;21.03;;;19.30;27.60;;;;;;4995813;28;20809;-81
2022/05/03 11:28:52;;;;;;;22.50;21.50;;;19.40;28.60;;;;;;4996134;28;20930;-81
2022/05/03 11:31:20;;;;;;;22.03;21.03;;;19.50;28.00;;;;;;4995773;28;20474;-81
2022/05/03 11:34:06;;;;;;;22.67;21.67;;;19.40;26.70;;;;;;4995804;28;20421;-80
2022/05/03 11:36:33;;;;;;;24.00;22.70;;;19.40;27.00;;;;;;4995898;28;20424;-80
2022/05/03 11:39:00;;;;;;;23.33;22.23;;;19.40;26.40;;;;;;4996152;28;20448;-80
2022/05/03 11:41:28;;;;;;;23.60;22.50;;;19.50;26.30;;;;;;4995747;28;20825;-81
2022/05/03 11:43:55;;;;;;;22.13;21.23;;;19.50;26.40;;;;;;4995653;28;20837;-81
2022/05/03 11:46:22;;;;;;;22.47;21.30;;;19.60;25.40;;;;;;4995590;28;20511;-81
2022/05/03 11:49:01;;;;;;;22.73;21.73;;;19.60;25.70;;;;;;4995902;28;20839;-81
2022/05/03 11:57:12;;;;;;;22.30;21.30;;;19.70;24.30;;;;;;5013458;28;20450;-80
2022/05/03 11:59:42;;;;;;;23.17;21.77;;;19.80;24.60;;;;;;4995246;28;20431;-80
2022/05/03 12:02:21;;;;;;;22.97;21.87;;;19.90;25.60;;;;;;4995689;28;20489;-80
2022/05/03 12:05:05;;;;;;;23.17;21.87;;;20.00;26.70;;;;;;4976842;28;20921;-80
2022/05/03 12:07:38;;;;;;;23.40;22.13;;;19.90;26.30;;;;;;4975816;28;20421;-80
2022/05/03 12:10:19;;;;;;;22.70;21.70;;;19.80;26.20;;;;;;4975915;28;20891;-80
2022/05/03 12:12:46;;;;;;;24.20;22.83;;;19.70;27.10;;;;;;4979253;28;20416;-79
2022/05/03 12:15:15;;;;;;;23.80;22.70;;;19.60;26.90;;;;;;4995038;28;20408;-80
2022/05/03 12:18:15;;;;;;;24.10;23.07;;;19.50;28.60;;;;;;4994983;28;20420;-81
2022/05/03 12:20:48;;;;;;;25.17;23.77;;;19.60;28.70;;;;;;5001940;28;20504;-81
2022/05/03 12:23:18;;;;;;;25.20;23.80;;;19.80;28.50;;;;;;4995050;28;20416;-81
2022/05/03 12:25:52;;;;;;;25.00;23.30;;;19.90;28.80;;;;;;4995423;28;20417;-80
2022/05/03 12:28:19;;;;;;;24.23;23.13;;;19.90;27.90;;;;;;4995076;28;20419;-81
2022/05/03 12:30:54;;;;;;;24.67;23.47;;;19.90;27.90;;;;;;5012476;28;20467;-81
2022/05/03 12:33:19;;;;;;;23.23;22.23;;;19.90;27.70;;;;;;4994966;28;20427;-81
2022/05/03 12:35:47;;;;;;;24.07;22.97;;;19.70;28.20;;;;;;4994815;28;20417;-81
2022/05/03 12:38:15;;;;;;;23.97;22.77;;;19.70;28.40;;;;;;4994935;28;20264;-81
2022/05/03 12:40:52;;;;;;;24.83;23.30;;;19.80;28.40;;;;;;4994988;28;20459;-80
2022/05/03 12:43:29;;;;;;;22.97;22.07;;;19.90;27.80;;;;;;4994710;28;20507;-80
2022/05/03 12:46:07;;;;;;;23.30;22.30;;;20.10;27.10;;;;;;4995020;28;20416;-81
2022/05/03 12:48:36;;;;;;;22.90;21.90;;;20.20;26.50;;;;;;4994883;28;20527;-80
2022/05/03 12:51:03;;;;;;;22.83;21.80;;;20.10;26.90;;;;;;5012605;28;20555;-81
2022/05/03 12:53:34;;;;;;;23.70;22.23;;;19.90;26.10;;;;;;4994531;28;20408;-80
2022/05/03 12:58:21;;;;;;;24.40;23.17;;;19.80;27.10;;;;;;4994554;28;20420;-80
2022/05/03 12:58:48;;;;;;;21.67;20.67;;;19.80;27.90;;;;;;5012212;28;20472;-80
2022/05/03 13:01:15;;;;;;;22.47;21.37;;;19.70;28.70;;;;;;4994537;28;20424;-80
2022/05/03 13:03:47;;;;;;;22.10;21.00;;;19.60;26.70;;;;;;4994630;28;20424;-80
2022/05/03 13:06:12;;;;;;;21.10;20.20;;;19.20;26.60;;;;;;4994421;28;20479;-80
2022/05/03 13:08:38;;;;;;;21.20;20.30;;;18.80;26.60;;;;;;4994519;28;20456;-80
2022/05/03 13:11:04;;;;;;;22.10;21.00;;;18.60;27.50;;;;;;4994359;28;20216;-80
2022/05/03 13:13:29;;;;;;;21.67;20.53;;;18.50;29.00;;;;;;4994359;28;20185;-80
2022/05/03 13:15:55;;;;;;;21.60;20.67;;;18.30;30.40;;;;;;4994223;28;20205;-80
2022/05/03 13:18:20;;;;;;;21.33;20.00;;;18.20;29.90;;;;;;4994444;28;20216;-80
2022/05/03 13:20:46;;;;;;;22.00;20.97;;;17.90;31.00;;;;;;4994412;28;20288;-80